Lloydminster Airport
CYLL : rendu visible

Aérodrome :











RETROUVEZ-NOUS SUR...

 
LOGIN :

S'inscrire | Disclaimer

   EN    FR    IT 

 









Légende :    VFR   VFR Marginal   IFR   IFR Intensif   IFR Très Intensif
Visi : 
Plafond : 
>= 8 km
>= 3000ft
5 à 8 km
1000 à 3000 ft
1500m à 5 km
500 à 1000 ft
800 à 1500m
200 à 500 ft
< 800m
< 200 ft
Symboles :   Orages  Brouillard  Fortes neiges  Fortes précipitations  Vent > 20 kt






- Altitude de l'aérodrome : 2193 ft
- Code IATA : YLL


CYLL - Lloydminster

DERNIER METAR :
  • 040817Z AUTO 31017G22KT 9SM SCT017 BKN034 BKN047 08/05 A2979 RMK ICG MISG SLP104

METARs EXPIRÉS :
  • 040800Z AUTO 31017G24KT 9SM BKN019 08/05 A2979 RMK ICG MISG SLP105
  • 040718Z AUTO 30014G21KT 9SM BKN021 BKN030 08/06 A2979 RMK ICG MISG SLP107
  • 040700Z AUTO 30012G20KT 9SM SCT021 08/06 A2979 RMK ICG MISG SLP108
  • 040600Z AUTO 30012G22KT 9SM CLR 08/06 A2979 RMK ICG MISG SLP108

TAF TAF CYLL
Valide du 04 à 06h jusqu'au 04 à 18h UTC


040538Z 0406/0418 30015G25KT P6SM SCT020 BKN080
TEMPO 0406/0408 P6SM -SHRA BKN020 BKN100
FM040800 31012G22KT P6SM SCT008 BKN025
TEMPO 0408/0415 BKN008 BKN025
FM041500 31015G25KT P6SM BKN025
TEMPO 0415/0418 P6SM -SHRA OVC020 RMK FCST BASED ON AUTO OBS. NXT FCST BY 041200Z
FIR CZEG / Amérique du Nord



MET'MAP, la Météo Aéronautique d'un coup d'oeil ! - Copyright ORBIFLY Décembre 2007 - Disclaimer

ORBIFLY MET'MAP TEAM :

Programmation & Développement : Alexandra Zaïnal
Sur une idée originale de : Baudouin d'Aumeries
Assistance à la programmation : Marc-Olivier Méhu
Soutien technique & logistique : Manuel Goepfert

Contact : metmap@orbifly.com




SOURCES & CREDITS :

   NOAA       Earth
Advisory